sensor_id;sensor_type;location;lat;lon;timestamp;P1;durP1;ratioP1;P2;durP2;ratioP2
35022;SDS011;21214;44.912;8.204;2023-05-10T08:03:43;2.97;;;2.77;;
35022;SDS011;21214;44.912;8.204;2023-05-10T08:06:08;3.00;;;2.80;;
35022;SDS011;21214;44.912;8.204;2023-05-10T08:08:34;4.50;;;3.83;;
35022;SDS011;21214;44.912;8.204;2023-05-10T08:10:59;3.40;;;3.20;;
35022;SDS011;21214;44.912;8.204;2023-05-10T08:20:43;3.85;;;2.75;;
35022;SDS011;21214;44.912;8.204;2023-05-10T08:30:25;1.90;;;1.80;;
35022;SDS011;21214;44.912;8.204;2023-05-10T08:32:50;1.75;;;1.65;;
35022;SDS011;21214;44.912;8.204;2023-05-10T08:35:15;2.22;;;2.08;;
35022;SDS011;21214;44.912;8.204;2023-05-10T08:37:41;2.10;;;1.90;;
35022;SDS011;21214;44.912;8.204;2023-05-10T08:40:06;1.80;;;1.70;;
35022;SDS011;21214;44.912;8.204;2023-05-10T08:42:36;2.03;;;1.73;;
35022;SDS011;21214;44.912;8.204;2023-05-10T08:54:51;3.30;;;2.00;;
35022;SDS011;21214;44.912;8.204;2023-05-10T08:57:18;1.92;;;1.83;;
35022;SDS011;21214;44.912;8.204;2023-05-10T08:59:44;1.88;;;1.77;;
35022;SDS011;21214;44.912;8.204;2023-05-10T18:14:55;1.48;;;1.38;;
35022;SDS011;21214;44.912;8.204;2023-05-10T18:17:20;1.88;;;1.65;;
35022;SDS011;21214;44.912;8.204;2023-05-10T18:19:46;1.60;;;1.50;;
35022;SDS011;21214;44.912;8.204;2023-05-10T18:22:11;1.60;;;1.50;;
35022;SDS011;21214;44.912;8.204;2023-05-10T18:24:37;1.63;;;1.52;;
35022;SDS011;21214;44.912;8.204;2023-05-10T18:27:02;2.15;;;1.60;;
35022;SDS011;21214;44.912;8.204;2023-05-10T18:29:29;1.63;;;1.60;;
35022;SDS011;21214;44.912;8.204;2023-05-10T18:31:55;1.30;;;1.20;;
35022;SDS011;21214;44.912;8.204;2023-05-10T18:34:20;2.38;;;1.35;;
35022;SDS011;21214;44.912;8.204;2023-05-10T18:36:46;1.45;;;1.35;;
35022;SDS011;21214;44.912;8.204;2023-05-10T18:39:11;1.50;;;1.40;;
35022;SDS011;21214;44.912;8.204;2023-05-10T18:41:37;1.27;;;1.17;;
35022;SDS011;21214;44.912;8.204;2023-05-10T18:44:03;1.50;;;1.40;;
35022;SDS011;21214;44.912;8.204;2023-05-10T18:46:29;2.38;;;1.58;;
35022;SDS011;21214;44.912;8.204;2023-05-10T18:48:55;1.35;;;1.30;;
35022;SDS011;21214;44.912;8.204;2023-05-10T18:51:20;1.50;;;1.40;;
35022;SDS011;21214;44.912;8.204;2023-05-10T18:53:47;4.57;;;1.73;;
35022;SDS011;21214;44.912;8.204;2023-05-10T18:56:15;1.45;;;1.35;;
35022;SDS011;21214;44.912;8.204;2023-05-10T18:58:40;1.40;;;1.30;;
35022;SDS011;21214;44.912;8.204;2023-05-10T19:01:06;1.90;;;1.80;;
35022;SDS011;21214;44.912;8.204;2023-05-10T19:03:31;1.58;;;1.48;;
35022;SDS011;21214;44.912;8.204;2023-05-10T19:05:57;2.22;;;1.80;;
35022;SDS011;21214;44.912;8.204;2023-05-10T19:08:22;1.48;;;1.33;;
35022;SDS011;21214;44.912;8.204;2023-05-10T19:10:48;1.60;;;1.50;;
35022;SDS011;21214;44.912;8.204;2023-05-10T19:13:13;1.80;;;1.70;;
35022;SDS011;21214;44.912;8.204;2023-05-10T19:15:39;2.50;;;1.80;;
35022;SDS011;21214;44.912;8.204;2023-05-10T19:18:05;2.95;;;1.88;;
35022;SDS011;21214;44.912;8.204;2023-05-10T19:20:31;1.95;;;1.63;;
35022;SDS011;21214;44.912;8.204;2023-05-10T19:22:57;1.60;;;1.50;;
35022;SDS011;21214;44.912;8.204;2023-05-10T19:25:23;1.73;;;1.63;;
35022;SDS011;21214;44.912;8.204;2023-05-10T19:27:54;1.83;;;1.73;;
35022;SDS011;21214;44.912;8.204;2023-05-10T19:30:21;1.90;;;1.80;;
35022;SDS011;21214;44.912;8.204;2023-05-10T19:32:47;2.00;;;1.90;;
35022;SDS011;21214;44.912;8.204;2023-05-10T19:35:14;2.30;;;1.63;;
35022;SDS011;21214;44.912;8.204;2023-05-10T19:37:40;2.00;;;1.90;;
35022;SDS011;21214;44.912;8.204;2023-05-10T19:40:10;1.63;;;1.52;;
35022;SDS011;21214;44.912;8.204;2023-05-10T19:42:37;2.55;;;1.95;;
35022;SDS011;21214;44.912;8.204;2023-05-10T19:45:03;5.15;;;2.45;;
35022;SDS011;21214;44.912;8.204;2023-05-10T19:47:29;2.45;;;2.25;;
35022;SDS011;21214;44.912;8.204;2023-05-10T19:49:54;2.38;;;2.20;;
35022;SDS011;21214;44.912;8.204;2023-05-10T19:52:20;2.30;;;2.10;;
35022;SDS011;21214;44.912;8.204;2023-05-10T19:54:47;2.22;;;2.03;;
35022;SDS011;21214;44.912;8.204;2023-05-10T19:57:13;2.88;;;1.80;;
35022;SDS011;21214;44.912;8.204;2023-05-10T19:59:41;2.10;;;1.90;;
35022;SDS011;21214;44.912;8.204;2023-05-10T20:02:10;2.60;;;2.40;;
35022;SDS011;21214;44.912;8.204;2023-05-10T20:04:36;3.72;;;3.38;;
35022;SDS011;21214;44.912;8.204;2023-05-10T20:07:01;5.60;;;3.13;;
35022;SDS011;21214;44.912;8.204;2023-05-10T20:09:27;6.18;;;3.88;;
35022;SDS011;21214;44.912;8.204;2023-05-10T20:11:52;5.55;;;4.05;;
35022;SDS011;21214;44.912;8.204;2023-05-10T20:14:18;4.55;;;3.92;;
35022;SDS011;21214;44.912;8.204;2023-05-10T20:16:43;7.00;;;5.15;;
35022;SDS011;21214;44.912;8.204;2023-05-10T20:19:09;5.60;;;4.75;;
35022;SDS011;21214;44.912;8.204;2023-05-10T20:21:36;5.32;;;4.25;;
35022;SDS011;21214;44.912;8.204;2023-05-10T20:24:01;3.78;;;3.45;;
35022;SDS011;21214;44.912;8.204;2023-05-10T20:26:27;4.40;;;4.00;;
35022;SDS011;21214;44.912;8.204;2023-05-10T20:28:52;5.75;;;4.78;;
35022;SDS011;21214;44.912;8.204;2023-05-10T20:31:18;7.85;;;5.55;;
35022;SDS011;21214;44.912;8.204;2023-05-10T20:33:43;10.18;;;5.82;;
35022;SDS011;21214;44.912;8.204;2023-05-10T20:36:09;10.50;;;6.85;;
